METAR Data
IDs: Format: Raw Decoded Include TAF

Data at: 0156 UTC 01 Mar 2021

KOSH 010153Z 28010KT 10SM FEW025 01/M03 A2983 RMK AO2 PK WND 29027/0120 SLP113 T00061033